createdAt,value
2023-01-17T00:00:35.050Z,4.70
2023-01-17T00:03:01.933Z,4.69
2023-01-17T00:05:47.158Z,4.64
2023-01-17T00:08:32.310Z,4.56
2023-01-17T00:10:59.236Z,4.51
2023-01-17T00:13:25.986Z,4.54
2023-01-17T00:15:53.132Z,4.52
2023-01-17T00:18:19.866Z,4.52
2023-01-17T00:21:05.371Z,4.49
2023-01-17T00:24:01.127Z,4.55
2023-01-17T00:26:28.187Z,4.58
2023-01-17T00:28:54.888Z,4.63
2023-01-17T00:31:22.161Z,4.64
2023-01-17T00:33:51.163Z,4.61
2023-01-17T00:36:17.864Z,4.65
2023-01-17T00:38:44.580Z,4.73
2023-01-17T00:41:14.512Z,4.66
2023-01-17T00:43:59.888Z,4.68
2023-01-17T00:46:45.255Z,4.69
2023-01-17T00:49:30.485Z,4.75
2023-01-17T00:52:16.018Z,4.76
2023-01-17T00:55:01.664Z,4.77
2023-01-17T00:57:48.501Z,4.69
2023-01-17T01:00:36.097Z,4.56
2023-01-17T01:03:30.572Z,4.54
2023-01-17T01:06:16.122Z,4.60
2023-01-17T01:09:01.569Z,4.64
2023-01-17T01:11:46.903Z,4.73
2023-01-17T01:14:32.054Z,4.65
2023-01-17T01:17:17.493Z,4.51
2023-01-17T01:20:02.726Z,4.46
2023-01-17T01:22:48.635Z,4.38
2023-01-17T01:25:33.909Z,4.42
2023-01-17T01:28:28.949Z,4.49
2023-01-17T01:31:14.351Z,4.45
2023-01-17T01:33:41.136Z,4.49
2023-01-17T01:36:09.236Z,4.54
2023-01-17T01:38:36.269Z,4.57
2023-01-17T01:41:03.244Z,4.60
2023-01-17T01:43:43.763Z,4.57
2023-01-17T01:46:15.017Z,4.46
2023-01-17T01:49:03.770Z,4.54
2023-01-17T01:51:43.059Z,4.62
2023-01-17T01:54:17.526Z,4.57
2023-01-17T01:56:45.636Z,4.59
2023-01-17T01:59:16.044Z,4.59
2023-01-17T02:01:43.026Z,4.49
2023-01-17T02:04:11.163Z,4.46
2023-01-17T02:06:46.241Z,4.46
2023-01-17T02:09:15.187Z,4.48
2023-01-17T02:11:42.510Z,4.45
2023-01-17T02:14:16.184Z,4.52
2023-01-17T02:17:09.590Z,4.47
2023-01-17T02:20:13.640Z,4.34
2023-01-17T02:22:40.306Z,4.29
2023-01-17T02:25:16.367Z,4.41
2023-01-17T02:28:02.831Z,4.37
2023-01-17T02:30:42.504Z,4.38
2023-01-17T02:33:16.922Z,4.56
2023-01-17T02:35:49.563Z,4.60
2023-01-17T02:38:31.645Z,4.54
2023-01-17T02:41:05.593Z,4.58
2023-01-17T02:43:34.215Z,4.65
2023-01-17T02:46:01.240Z,4.65
2023-01-17T02:48:32.409Z,4.57
2023-01-17T02:51:38.911Z,4.45
2023-01-17T02:54:05.688Z,4.55
2023-01-17T02:56:49.068Z,4.62
2023-01-17T02:59:21.351Z,4.66
2023-01-17T03:02:06.384Z,4.66
2023-01-17T03:04:38.042Z,4.70
2023-01-17T03:07:11.543Z,4.68
2023-01-17T03:09:40.792Z,4.68
2023-01-17T03:12:09.356Z,4.69
2023-01-17T03:14:36.138Z,4.60
2023-01-17T03:17:02.942Z,4.60
2023-01-17T03:19:29.993Z,4.70
2023-01-17T03:21:56.996Z,4.59
2023-01-17T03:24:23.913Z,4.65
2023-01-17T03:26:50.623Z,4.80
2023-01-17T03:29:17.482Z,4.77
2023-01-17T03:31:44.215Z,4.83
2023-01-17T03:34:11.175Z,4.93
2023-01-17T03:36:37.817Z,5.01
2023-01-17T03:39:04.710Z,5.04
2023-01-17T03:41:31.420Z,5.03
2023-01-17T03:43:58.176Z,5.08
2023-01-17T03:46:26.034Z,5.05
2023-01-17T03:48:53.226Z,5.09
2023-01-17T03:51:20.512Z,5.15
2023-01-17T03:53:47.656Z,5.07
2023-01-17T03:56:14.870Z,5.06
2023-01-17T03:58:41.771Z,5.07
2023-01-17T04:01:08.777Z,5.02
2023-01-17T04:03:35.617Z,4.95
2023-01-17T04:06:02.434Z,4.92
2023-01-17T04:08:32.054Z,4.99
2023-01-17T04:10:58.844Z,5.13
2023-01-17T04:13:25.566Z,5.13
2023-01-17T04:15:52.796Z,5.10
2023-01-17T04:18:21.079Z,5.05
2023-01-17T04:20:48.053Z,5.05
2023-01-17T04:23:14.742Z,4.98
2023-01-17T04:25:41.605Z,4.92
2023-01-17T04:28:08.766Z,4.86
2023-01-17T04:30:35.600Z,4.88
2023-01-17T04:33:02.497Z,4.85
2023-01-17T04:35:31.651Z,4.86
2023-01-17T04:37:58.374Z,4.70
2023-01-17T04:40:25.292Z,4.62
2023-01-17T04:42:52.062Z,4.62
2023-01-17T04:45:19.056Z,4.66
2023-01-17T04:47:45.811Z,4.70
2023-01-17T04:50:13.053Z,4.64
2023-01-17T04:52:39.833Z,4.53
2023-01-17T04:55:07.978Z,4.57
2023-01-17T04:57:34.743Z,4.59
2023-01-17T05:00:01.543Z,4.56
2023-01-17T05:02:28.575Z,4.48
2023-01-17T05:04:55.282Z,4.48
2023-01-17T05:07:22.492Z,4.49
2023-01-17T05:09:50.344Z,4.47
2023-01-17T05:12:17.042Z,4.52
2023-01-17T05:14:43.744Z,4.49
2023-01-17T05:17:11.345Z,4.46
2023-01-17T05:19:38.221Z,4.49
2023-01-17T05:22:15.190Z,4.56
2023-01-17T05:24:44.062Z,4.51
2023-01-17T05:27:11.735Z,4.48
2023-01-17T05:29:38.718Z,4.53
2023-01-17T05:32:06.183Z,4.53
2023-01-17T05:34:33.019Z,4.42
2023-01-17T05:37:00.662Z,4.44
2023-01-17T05:39:27.409Z,4.53
2023-01-17T05:41:54.166Z,4.56
2023-01-17T05:44:20.903Z,4.61
2023-01-17T05:46:47.685Z,4.62
2023-01-17T05:49:14.499Z,4.63
2023-01-17T05:51:41.192Z,4.64
2023-01-17T05:54:08.148Z,4.64
2023-01-17T05:56:38.123Z,4.69
2023-01-17T05:59:04.922Z,4.73
2023-01-17T06:01:31.650Z,4.67
2023-01-17T06:03:58.341Z,4.57
2023-01-17T06:06:25.086Z,4.55
2023-01-17T06:08:51.780Z,4.59
2023-01-17T06:11:18.793Z,4.57
2023-01-17T06:13:48.794Z,4.56
2023-01-17T06:16:15.630Z,4.53
2023-01-17T06:18:42.392Z,4.50
2023-01-17T06:21:09.209Z,4.54
2023-01-17T06:23:36.026Z,4.60
2023-01-17T06:26:04.501Z,4.62
2023-01-17T06:28:32.605Z,4.60
2023-01-17T06:31:00.076Z,4.66
2023-01-17T06:33:26.941Z,4.72
2023-01-17T06:35:54.182Z,4.80
2023-01-17T06:38:21.401Z,4.83
2023-01-17T06:40:48.173Z,4.86
2023-01-17T06:43:15.214Z,4.87
2023-01-17T06:45:41.891Z,4.90
2023-01-17T06:48:13.106Z,4.90
2023-01-17T06:50:39.818Z,4.92
2023-01-17T06:53:07.533Z,4.97
2023-01-17T06:55:35.329Z,5.01
2023-01-17T06:58:03.195Z,5.07
2023-01-17T07:00:35.066Z,5.10
2023-01-17T07:03:03.111Z,5.16
2023-01-17T07:05:29.869Z,5.22
2023-01-17T07:07:57.513Z,5.25
2023-01-17T07:10:24.219Z,5.30
2023-01-17T07:12:51.539Z,5.34
2023-01-17T07:15:18.350Z,5.36
2023-01-17T07:17:45.068Z,5.40
2023-01-17T07:20:12.024Z,5.42
2023-01-17T07:22:38.880Z,5.45
2023-01-17T07:25:06.487Z,5.44
2023-01-17T07:27:33.690Z,5.41
2023-01-17T07:30:00.854Z,5.38
2023-01-17T07:32:27.938Z,5.41
2023-01-17T07:34:56.888Z,5.44
2023-01-17T07:37:23.749Z,5.49
2023-01-17T07:39:50.540Z,5.55
2023-01-17T07:42:17.315Z,5.60
2023-01-17T07:44:45.321Z,5.63
2023-01-17T07:47:12.488Z,5.69
2023-01-17T07:49:39.278Z,5.83
2023-01-17T07:52:12.576Z,5.84
2023-01-17T07:54:39.173Z,5.58
2023-01-17T07:57:06.153Z,5.78
2023-01-17T07:59:34.546Z,5.81
2023-01-17T08:02:01.493Z,5.92
2023-01-17T08:04:34.676Z,6.00
2023-01-17T08:07:01.897Z,6.15
2023-01-17T08:09:28.745Z,6.33
2023-01-17T08:11:58.654Z,6.43
2023-01-17T08:14:25.633Z,6.51
2023-01-17T08:16:53.281Z,6.54
2023-01-17T08:19:20.461Z,6.56
2023-01-17T08:21:47.281Z,6.59
2023-01-17T08:24:14.653Z,6.62
2023-01-17T08:26:41.449Z,6.62
2023-01-17T08:29:08.992Z,6.62
2023-01-17T08:31:36.718Z,6.60
2023-01-17T08:34:03.578Z,6.63
2023-01-17T08:36:31.372Z,6.64
2023-01-17T08:38:58.941Z,6.67
2023-01-17T08:41:27.780Z,6.70
2023-01-17T08:43:54.624Z,6.70
2023-01-17T08:46:21.503Z,6.65
2023-01-17T08:48:48.260Z,6.67
2023-01-17T08:51:14.985Z,6.72
2023-01-17T08:53:42.032Z,6.78
2023-01-17T08:56:09.306Z,6.80
2023-01-17T08:58:36.100Z,6.83
2023-01-17T09:01:04.320Z,6.91
2023-01-17T09:03:32.552Z,6.99
2023-01-17T09:06:10.962Z,7.11
2023-01-17T09:08:38.243Z,7.38
2023-01-17T09:11:06.509Z,7.55
2023-01-17T09:13:33.634Z,7.59
2023-01-17T09:16:03.114Z,7.56
2023-01-17T09:18:30.965Z,7.47
2023-01-17T09:20:59.270Z,7.39
2023-01-17T09:23:28.233Z,7.42
2023-01-17T09:25:59.129Z,7.41
2023-01-17T09:28:26.808Z,7.45
2023-01-17T09:30:54.576Z,7.52
2023-01-17T09:33:24.475Z,7.51
2023-01-17T09:35:51.518Z,7.52
2023-01-17T09:38:18.401Z,7.65
2023-01-17T09:40:47.788Z,7.66
2023-01-17T09:43:44.437Z,7.59
2023-01-17T09:46:26.767Z,7.60
2023-01-17T09:49:19.772Z,7.63
2023-01-17T09:51:46.682Z,7.83
2023-01-17T09:54:23.894Z,7.97
2023-01-17T09:57:22.555Z,8.11
2023-01-17T10:00:04.297Z,8.36
2023-01-17T10:02:53.973Z,8.56
2023-01-17T10:05:30.884Z,8.92
2023-01-17T10:08:29.603Z,9.14
2023-01-17T10:10:57.855Z,9.48
2023-01-17T10:13:27.338Z,9.64
2023-01-17T10:16:22.877Z,9.61
2023-01-17T10:19:16.282Z,9.69
2023-01-17T10:22:10.895Z,9.60
2023-01-17T10:24:56.091Z,9.62
2023-01-17T10:27:30.493Z,9.62
2023-01-17T10:29:57.349Z,9.51
2023-01-17T10:32:29.504Z,9.40
2023-01-17T10:34:58.306Z,9.39
2023-01-17T10:37:56.790Z,9.25
2023-01-17T10:40:40.976Z,9.27
2023-01-17T10:43:24.707Z,9.15
2023-01-17T10:45:58.175Z,8.99
2023-01-17T10:48:41.597Z,8.90
2023-01-17T10:51:26.804Z,8.94
2023-01-17T10:54:14.892Z,9.00
2023-01-17T10:56:42.328Z,9.07
2023-01-17T10:59:23.806Z,9.05
2023-01-17T11:01:51.378Z,9.18
2023-01-17T11:04:32.326Z,9.21
2023-01-17T11:07:25.963Z,9.19
2023-01-17T11:09:58.283Z,9.32
2023-01-17T11:12:54.556Z,9.26
2023-01-17T11:15:25.994Z,9.51
2023-01-17T11:18:03.230Z,9.51
2023-01-17T11:20:39.993Z,9.58
2023-01-17T11:23:31.326Z,9.40
2023-01-17T11:26:03.609Z,9.38
2023-01-17T11:28:38.076Z,9.19
2023-01-17T11:31:07.990Z,9.21
2023-01-17T11:38:29.430Z,9.10
2023-01-17T11:41:20.323Z,8.95
2023-01-17T11:43:55.208Z,9.03
2023-01-17T11:46:23.911Z,9.17
2023-01-17T11:48:55.830Z,9.28
2023-01-17T11:51:41.614Z,9.31
2023-01-17T11:54:20.918Z,9.48
2023-01-17T11:56:47.808Z,9.60
2023-01-17T11:59:37.407Z,9.56
2023-01-17T12:02:34.295Z,9.61
2023-01-17T12:05:34.986Z,9.73
2023-01-17T12:08:25.144Z,9.79
2023-01-17T12:11:33.626Z,9.71
2023-01-17T12:14:11.177Z,9.77
2023-01-17T12:16:44.032Z,9.82
2023-01-17T12:19:34.027Z,9.78
2023-01-17T12:22:45.019Z,9.67
2023-01-17T12:25:47.803Z,9.79
2023-01-17T12:28:26.715Z,9.71
2023-01-17T12:31:27.145Z,9.66
2023-01-17T12:34:38.905Z,9.58
2023-01-17T12:37:29.617Z,9.46
2023-01-17T12:40:15.191Z,9.42
2023-01-17T12:42:49.508Z,9.42
2023-01-17T12:45:24.521Z,9.38
2023-01-17T12:47:59.916Z,9.41
2023-01-17T12:50:43.246Z,9.25
2023-01-17T12:53:39.511Z,9.14
2023-01-17T12:56:44.994Z,8.94
2023-01-17T12:59:37.985Z,8.86
2023-01-17T13:02:34.315Z,8.82
2023-01-17T13:05:23.789Z,8.84
2023-01-17T13:07:53.383Z,8.83
2023-01-17T13:10:30.984Z,8.70
2023-01-17T13:13:03.518Z,8.65
2023-01-17T13:15:37.586Z,8.59
2023-01-17T13:18:15.806Z,8.59
2023-01-17T13:20:48.410Z,8.60
2023-01-17T13:23:48.570Z,8.59
2023-01-17T13:26:41.543Z,8.49
2023-01-17T13:29:46.385Z,8.49
2023-01-17T13:32:40.082Z,8.54
2023-01-17T13:35:33.652Z,8.57
2023-01-17T13:38:29.282Z,8.37
2023-01-17T13:41:06.609Z,8.46
2023-01-17T13:43:39.811Z,8.41
2023-01-17T13:46:07.281Z,8.11
2023-01-17T13:48:38.552Z,8.32
2023-01-17T13:51:09.411Z,8.35
2023-01-17T13:53:36.991Z,8.35
2023-01-17T13:56:12.359Z,8.24
2023-01-17T13:58:51.870Z,8.13
2023-01-17T14:01:24.749Z,8.04
2023-01-17T14:03:54.207Z,8.06
2023-01-17T14:06:54.627Z,7.92
2023-01-17T14:09:25.284Z,7.91
2023-01-17T14:11:52.149Z,7.90
2023-01-17T14:14:40.043Z,7.80
2023-01-17T14:17:29.222Z,7.76
2023-01-17T14:20:06.101Z,7.73
2023-01-17T14:22:58.747Z,7.62
2023-01-17T14:25:33.604Z,7.62
2023-01-17T14:28:18.339Z,7.63
2023-01-17T14:30:45.289Z,7.72
2023-01-17T14:33:20.420Z,7.64
2023-01-17T14:36:00.911Z,7.60
2023-01-17T14:38:33.053Z,7.55
2023-01-17T14:41:09.318Z,7.50
2023-01-17T14:43:41.004Z,7.48
2023-01-17T14:46:22.795Z,7.45
2023-01-17T14:48:50.225Z,7.35
2023-01-17T14:51:25.052Z,7.29
2023-01-17T14:54:03.232Z,7.24
2023-01-17T14:56:31.410Z,7.31
2023-01-17T14:59:17.246Z,7.25
2023-01-17T15:02:06.291Z,7.27
2023-01-17T15:04:39.359Z,7.26
2023-01-17T15:07:07.067Z,7.28
2023-01-17T15:09:37.591Z,7.29
2023-01-17T15:12:08.463Z,7.31
2023-01-17T15:14:39.129Z,7.21
2023-01-17T15:17:20.921Z,7.14
2023-01-17T15:20:01.782Z,7.19
2023-01-17T15:22:30.400Z,7.17
2023-01-17T15:24:58.602Z,7.12
2023-01-17T15:27:25.745Z,7.11
2023-01-17T15:29:54.061Z,7.10
2023-01-17T15:32:24.092Z,7.14
2023-01-17T15:34:52.727Z,7.09
2023-01-17T15:37:28.912Z,7.12
2023-01-17T15:40:25.414Z,7.06
2023-01-17T15:43:01.787Z,7.08
2023-01-17T15:45:33.282Z,7.04
2023-01-17T15:48:44.073Z,7.00
2023-01-17T15:51:56.679Z,7.05
2023-01-17T15:54:34.230Z,7.04
2023-01-17T15:57:18.120Z,7.08
2023-01-17T15:59:54.824Z,7.12
2023-01-17T16:02:33.233Z,7.05
2023-01-17T16:05:01.928Z,7.05
2023-01-17T16:07:48.394Z,6.99
2023-01-17T16:10:18.705Z,7.12
2023-01-17T16:12:50.093Z,7.16
2023-01-17T16:15:18.525Z,7.17
2023-01-17T16:17:48.669Z,7.11
2023-01-17T16:25:44.450Z,6.83
2023-01-17T16:28:11.224Z,6.82
2023-01-17T16:30:38.780Z,6.75
2023-01-17T16:33:05.743Z,6.70
2023-01-17T16:35:34.423Z,6.52
2023-01-17T16:38:06.901Z,6.40
2023-01-17T16:40:46.046Z,6.23
2023-01-17T16:43:14.549Z,6.13
2023-01-17T16:45:55.598Z,5.94
2023-01-17T16:48:22.807Z,5.86
2023-01-17T16:50:52.369Z,5.68
2023-01-17T16:53:24.933Z,5.60
2023-01-17T16:55:54.949Z,5.49
2023-01-17T16:58:21.645Z,5.49
2023-01-17T17:00:48.573Z,5.45
2023-01-17T17:03:17.879Z,5.45
2023-01-17T17:05:47.196Z,5.49
2023-01-17T17:08:15.492Z,5.45
2023-01-17T17:10:42.292Z,5.31
2023-01-17T17:13:09.044Z,5.18
2023-01-17T17:15:40.279Z,5.10
2023-01-17T17:18:07.030Z,5.02
2023-01-17T17:20:33.768Z,5.10
2023-01-17T17:23:00.823Z,5.03
2023-01-17T17:25:27.758Z,4.97
2023-01-17T17:27:54.755Z,4.90
2023-01-17T17:30:21.544Z,4.86
2023-01-17T17:32:49.410Z,4.83
2023-01-17T17:35:16.436Z,4.77
2023-01-17T17:37:43.174Z,4.74
2023-01-17T17:40:10.569Z,4.82
2023-01-17T17:42:37.329Z,4.83
2023-01-17T17:45:04.858Z,4.74
2023-01-17T17:47:31.692Z,4.64
2023-01-17T17:49:58.467Z,4.60
2023-01-17T17:52:28.688Z,4.64
2023-01-17T17:54:55.409Z,4.64
2023-01-17T17:57:22.184Z,4.66
2023-01-17T17:59:48.967Z,4.69
2023-01-17T18:02:16.446Z,4.71
2023-01-17T18:04:43.220Z,4.72
2023-01-17T18:07:09.937Z,4.74
2023-01-17T18:09:36.711Z,4.73
2023-01-17T18:12:03.667Z,4.75
2023-01-17T18:14:30.600Z,4.72
2023-01-17T18:16:57.397Z,4.75
2023-01-17T18:19:25.865Z,4.75
2023-01-17T18:21:53.351Z,4.71
2023-01-17T18:24:22.741Z,4.70
2023-01-17T18:26:52.654Z,4.64
2023-01-17T18:29:21.407Z,4.65
2023-01-17T18:31:55.152Z,4.65
2023-01-17T18:34:27.082Z,4.60
2023-01-17T18:36:54.268Z,4.63
2023-01-17T18:39:24.513Z,4.68
2023-01-17T18:41:51.625Z,4.73
2023-01-17T18:44:22.019Z,4.79
2023-01-17T18:46:50.386Z,4.72
2023-01-17T18:49:19.503Z,4.67
2023-01-17T18:51:50.448Z,4.65
2023-01-17T18:54:18.914Z,4.64
2023-01-17T18:56:45.746Z,4.65
2023-01-17T18:59:14.504Z,4.64
2023-01-17T19:01:44.893Z,4.64
2023-01-17T19:04:13.730Z,4.72
2023-01-17T19:06:43.466Z,4.74
2023-01-17T19:09:12.610Z,4.72
2023-01-17T19:11:39.636Z,4.77
2023-01-17T19:14:09.901Z,4.74
2023-01-17T19:16:39.368Z,4.70
2023-01-17T19:19:09.785Z,4.70
2023-01-17T19:21:37.194Z,4.71
2023-01-17T19:24:04.839Z,4.74
2023-01-17T19:26:31.860Z,4.81
2023-01-17T19:29:00.060Z,4.91
2023-01-17T19:31:29.585Z,4.95
2023-01-17T19:34:00.347Z,4.97
2023-01-17T19:36:29.553Z,4.97
2023-01-17T19:39:04.375Z,4.98
2023-01-17T19:41:33.630Z,4.96
2023-01-17T19:44:03.545Z,4.81
2023-01-17T19:46:30.695Z,4.82
2023-01-17T19:48:58.044Z,4.86
2023-01-17T19:51:26.732Z,4.90
2023-01-17T19:53:55.384Z,4.92
2023-01-17T19:56:25.274Z,4.79
2023-01-17T19:58:52.629Z,4.70
2023-01-17T20:01:24.170Z,4.63
2023-01-17T20:03:51.452Z,4.64
2023-01-17T20:06:24.006Z,4.51
2023-01-17T20:08:51.158Z,4.41
2023-01-17T20:11:20.526Z,4.42
2023-01-17T20:13:48.555Z,4.42
2023-01-17T20:16:17.184Z,4.40
2023-01-17T20:18:44.175Z,4.39
2023-01-17T20:21:14.429Z,4.37
2023-01-17T20:23:43.098Z,4.32
2023-01-17T20:26:13.810Z,4.32
2023-01-17T20:28:42.027Z,4.31
2023-01-17T20:31:14.983Z,4.35
2023-01-17T20:33:43.181Z,4.32
2023-01-17T20:36:12.697Z,4.31
2023-01-17T20:38:46.013Z,4.30
2023-01-17T20:41:19.993Z,4.08
2023-01-17T20:43:47.968Z,4.01
2023-01-17T20:46:15.691Z,4.10
2023-01-17T20:48:47.884Z,4.11
2023-01-17T20:51:15.302Z,4.18
2023-01-17T20:53:43.536Z,4.16
2023-01-17T20:56:15.005Z,4.16
2023-01-17T20:58:42.613Z,4.18
2023-01-17T21:01:11.913Z,4.21
2023-01-17T21:03:39.748Z,4.21
2023-01-17T21:06:09.219Z,4.15
2023-01-17T21:08:38.607Z,4.14
2023-01-17T21:11:07.181Z,4.18
2023-01-17T21:13:36.355Z,4.20
2023-01-17T21:16:03.821Z,4.14
2023-01-17T21:18:33.791Z,4.09
2023-01-17T21:21:09.340Z,4.01
2023-01-17T21:23:38.054Z,4.06
2023-01-17T21:26:09.456Z,4.01
2023-01-17T21:28:38.787Z,4.10
2023-01-17T21:31:23.007Z,4.17
2023-01-17T21:33:58.157Z,4.18
2023-01-17T21:36:31.032Z,4.15
2023-01-17T21:38:59.764Z,4.16
2023-01-17T21:41:28.781Z,4.26
2023-01-17T21:44:01.241Z,4.27
2023-01-17T21:46:29.196Z,4.29
2023-01-17T21:48:58.696Z,4.36
2023-01-17T21:51:45.728Z,4.19
2023-01-17T21:54:18.995Z,4.09
2023-01-17T21:57:04.240Z,3.81
2023-01-17T21:59:33.930Z,3.91
2023-01-17T22:02:22.489Z,4.03
2023-01-17T22:05:24.662Z,4.06
2023-01-17T22:08:12.033Z,4.12
2023-01-17T22:10:45.983Z,4.04
2023-01-17T22:13:13.340Z,3.88
2023-01-17T22:15:40.127Z,4.05
2023-01-17T22:18:11.248Z,4.04
2023-01-17T22:20:41.957Z,4.04
2023-01-17T22:23:10.110Z,3.98
2023-01-17T22:25:37.395Z,4.04
2023-01-17T22:28:04.868Z,3.92
2023-01-17T22:30:31.686Z,3.96
2023-01-17T22:33:00.073Z,4.01
2023-01-17T22:35:26.979Z,3.98
2023-01-17T22:37:54.572Z,3.99
2023-01-17T22:40:32.091Z,4.05
2023-01-17T22:42:59.243Z,4.12
2023-01-17T22:45:27.380Z,4.17
2023-01-17T22:47:54.148Z,4.11
2023-01-17T22:50:23.030Z,4.15
2023-01-17T22:52:49.814Z,4.20
2023-01-17T22:55:16.579Z,4.09
2023-01-17T22:57:46.595Z,3.98
2023-01-17T23:00:14.728Z,4.04
2023-01-17T23:02:58.466Z,3.99
2023-01-17T23:05:25.440Z,4.00
2023-01-17T23:07:52.217Z,4.06
2023-01-17T23:10:39.031Z,4.03
2023-01-17T23:13:10.359Z,4.02
2023-01-17T23:15:58.830Z,4.03
2023-01-17T23:18:44.413Z,4.06
2023-01-17T23:21:13.962Z,4.08
2023-01-17T23:23:40.662Z,3.95
2023-01-17T23:26:07.375Z,3.95
2023-01-17T23:28:34.118Z,4.04
2023-01-17T23:31:05.016Z,4.06
2023-01-17T23:33:32.134Z,4.00
2023-01-17T23:36:01.624Z,4.11
2023-01-17T23:38:33.795Z,4.17
2023-01-17T23:41:25.143Z,4.16
2023-01-17T23:43:53.999Z,4.11
2023-01-17T23:46:27.874Z,4.10
2023-01-17T23:48:55.290Z,4.13
2023-01-17T23:51:22.094Z,4.06
2023-01-17T23:53:48.810Z,4.14
2023-01-17T23:56:23.163Z,4.16
2023-01-17T23:58:50.370Z,4.10
